Dati Storici

Data ora Umidita' aria (%) Temperatura aria (°C) Rad globale (W/m²) Gonioanemometro (°) Tacoanemometro (m/s) Pioggia (mm)
24-10-2012 04:10 72.8 % 11.015 0.989 5.561 2.387 0
24-10-2012 04:00 73.5 % 11.087 1.233 26.988 1.49 0
24-10-2012 03:50 73.9 % 11.009 0.861 15.045 1.213 0
24-10-2012 03:40 73.8 % 11.06 0.668 353.97 0.991 0
24-10-2012 03:30 73.6 % 11.158 0.951 63.308 1.794 0
24-10-2012 03:20 73.7 % 11.375 0.848 17.301 1.857 0
24-10-2012 03:10 73.7 % 11.378 0.848 25.707 0.721 0
24-10-2012 03:00 73.8 % 11.511 0.656 39.293 1.252 0
24-10-2012 02:50 73.9 % 11.529 0.63 53.069 0.872 0
24-10-2012 02:40 74.2 % 11.273 0.309 20.806 1.243 0
24-10-2012 02:30 73.9 % 11.098 0.155 21.993 0.793 0
24-10-2012 02:20 73.1 % 11.287 0.194 1.689 0.934 0
24-10-2012 02:10 72.6 % 11.571 0.771 32.137 1.704 0
24-10-2012 02:00 72.4 % 11.569 0.784 33.067 0.758 0
24-10-2012 01:50 72 % 11.651 0.45 26.362 0.601 0
24-10-2012 01:40 71.6 % 11.663 0.63 60.054 1.129 0
24-10-2012 01:30 70.9 % 11.79 0.707 52.333 1.062 0
24-10-2012 01:20 70.3 % 11.975 0.835 25.788 1.099 0
24-10-2012 01:10 69.9 % 11.913 0.8 33.202 1.143 0
24-10-2012 01:00 69.3 % 11.951 1.018 9.768 1.039 0

I dati sono presentati in modo automatico a scopo informativo. In seguito a verifica i dati possono subire modifiche o essere invalidati e non riportati negli archivi definitivi.